sensor_id;sensor_type;location;lat;lon;timestamp;pressure;altitude;pressure_sealevel;temperature;humidity
23318;BME280;11831;55.918;37.746;2022-10-17T00:02:21;100464.75;;;8.79;0.00
23318;BME280;11831;55.918;37.746;2022-10-17T00:04:47;100470.97;;;8.64;0.00
23318;BME280;11831;55.918;37.746;2022-10-17T00:07:13;100467.97;;;8.53;0.00
23318;BME280;11831;55.918;37.746;2022-10-17T00:09:42;100471.91;;;8.57;0.00
23318;BME280;11831;55.918;37.746;2022-10-17T00:12:08;100467.87;;;8.61;0.00
23318;BME280;11831;55.918;37.746;2022-10-17T00:14:35;100456.03;;;8.49;0.00
23318;BME280;11831;55.918;37.746;2022-10-17T00:17:01;100453.78;;;8.67;0.00
23318;BME280;11831;55.918;37.746;2022-10-17T00:19:27;100445.38;;;8.49;0.00
23318;BME280;11831;55.918;37.746;2022-10-17T00:21:53;100447.56;;;8.60;0.00
23318;BME280;11831;55.918;37.746;2022-10-17T00:24:19;100448.69;;;8.51;0.00
23318;BME280;11831;55.918;37.746;2022-10-17T00:26:45;100447.03;;;8.50;0.00
23318;BME280;11831;55.918;37.746;2022-10-17T00:29:11;100440.47;;;8.31;0.00
23318;BME280;11831;55.918;37.746;2022-10-17T00:31:37;100444.94;;;8.45;0.00
23318;BME280;11831;55.918;37.746;2022-10-17T00:34:04;100444.06;;;8.59;0.00
23318;BME280;11831;55.918;37.746;2022-10-17T00:36:30;100428.13;;;8.45;0.00
23318;BME280;11831;55.918;37.746;2022-10-17T00:38:56;100425.94;;;8.55;0.00
23318;BME280;11831;55.918;37.746;2022-10-17T00:41:25;100422.16;;;8.43;0.00
23318;BME280;11831;55.918;37.746;2022-10-17T00:46:38;100412.06;;;8.59;0.00
23318;BME280;11831;55.918;37.746;2022-10-17T00:49:05;100414.84;;;8.30;0.00
23318;BME280;11831;55.918;37.746;2022-10-17T00:51:54;100408.19;;;8.40;0.00
23318;BME280;11831;55.918;37.746;2022-10-17T00:54:20;100407.75;;;8.58;0.00
23318;BME280;11831;55.918;37.746;2022-10-17T00:56:47;100391.06;;;8.50;0.00
23318;BME280;11831;55.918;37.746;2022-10-17T00:59:15;100395.75;;;8.48;0.00
23318;BME280;11831;55.918;37.746;2022-10-17T01:01:41;100393.09;;;8.48;0.00
23318;BME280;11831;55.918;37.746;2022-10-17T01:04:11;100396.13;;;8.45;0.00
23318;BME280;11831;55.918;37.746;2022-10-17T01:06:38;100377.59;;;8.58;0.00
23318;BME280;11831;55.918;37.746;2022-10-17T01:09:04;100377.66;;;8.43;0.00
23318;BME280;11831;55.918;37.746;2022-10-17T01:14:05;100370.34;;;8.30;0.00
23318;BME280;11831;55.918;37.746;2022-10-17T01:22:04;100361.63;;;8.58;0.00
23318;BME280;11831;55.918;37.746;2022-10-17T01:24:40;100361.47;;;8.66;0.00
23318;BME280;11831;55.918;37.746;2022-10-17T01:38:14;100341.00;;;8.45;0.00
23318;BME280;11831;55.918;37.746;2022-10-17T01:43:11;100344.00;;;8.21;0.00
23318;BME280;11831;55.918;37.746;2022-10-17T01:45:42;100346.56;;;8.29;0.00
23318;BME280;11831;55.918;37.746;2022-10-17T01:48:22;100335.56;;;8.17;0.00
23318;BME280;11831;55.918;37.746;2022-10-17T01:50:53;100324.97;;;8.24;0.00
23318;BME280;11831;55.918;37.746;2022-10-17T01:53:32;100323.97;;;8.46;0.00
23318;BME280;11831;55.918;37.746;2022-10-17T01:55:59;100321.47;;;8.38;0.00
23318;BME280;11831;55.918;37.746;2022-10-17T01:58:28;100322.19;;;8.10;0.00
23318;BME280;11831;55.918;37.746;2022-10-17T02:00:57;100311.22;;;8.20;0.00
23318;BME280;11831;55.918;37.746;2022-10-17T02:03:24;100304.25;;;8.19;0.00
23318;BME280;11831;55.918;37.746;2022-10-17T02:05:52;100319.44;;;8.25;0.00
23318;BME280;11831;55.918;37.746;2022-10-17T02:08:28;100311.37;;;8.33;0.00
23318;BME280;11831;55.918;37.746;2022-10-17T02:18:45;100313.69;;;8.43;0.00
23318;BME280;11831;55.918;37.746;2022-10-17T02:21:42;100305.84;;;8.35;0.00
23318;BME280;11831;55.918;37.746;2022-10-17T02:24:16;100306.22;;;8.10;0.00
23318;BME280;11831;55.918;37.746;2022-10-17T02:26:46;100296.28;;;8.26;0.00
23318;BME280;11831;55.918;37.746;2022-10-17T02:29:16;100297.41;;;8.10;0.00
23318;BME280;11831;55.918;37.746;2022-10-17T02:32:03;100291.78;;;7.98;0.00
23318;BME280;11831;55.918;37.746;2022-10-17T02:34:37;100297.34;;;8.03;0.00
23318;BME280;11831;55.918;37.746;2022-10-17T02:37:06;100299.66;;;7.92;0.00
23318;BME280;11831;55.918;37.746;2022-10-17T02:39:33;100301.09;;;8.09;0.00
23318;BME280;11831;55.918;37.746;2022-10-17T02:42:00;100296.88;;;7.78;0.00
23318;BME280;11831;55.918;37.746;2022-10-17T02:44:28;100302.53;;;7.90;0.00
23318;BME280;11831;55.918;37.746;2022-10-17T02:47:12;100299.81;;;8.05;0.00
23318;BME280;11831;55.918;37.746;2022-10-17T02:49:42;100296.72;;;8.01;0.00
23318;BME280;11831;55.918;37.746;2022-10-17T02:52:15;100277.81;;;7.96;0.00
23318;BME280;11831;55.918;37.746;2022-10-17T02:54:44;100283.44;;;8.08;0.00
23318;BME280;11831;55.918;37.746;2022-10-17T02:59:47;100277.34;;;7.93;0.00
23318;BME280;11831;55.918;37.746;2022-10-17T03:02:15;100289.28;;;7.75;0.00
23318;BME280;11831;55.918;37.746;2022-10-17T03:04:42;100268.72;;;7.91;0.00
23318;BME280;11831;55.918;37.746;2022-10-17T03:07:08;100272.22;;;7.70;0.00
23318;BME280;11831;55.918;37.746;2022-10-17T03:09:34;100265.62;;;7.87;0.00
23318;BME280;11831;55.918;37.746;2022-10-17T03:12:01;100267.81;;;7.62;0.00
23318;BME280;11831;55.918;37.746;2022-10-17T03:14:27;100251.75;;;7.70;0.00
23318;BME280;11831;55.918;37.746;2022-10-17T03:16:53;100263.13;;;7.64;0.00
23318;BME280;11831;55.918;37.746;2022-10-17T03:19:19;100265.56;;;8.02;0.00
23318;BME280;11831;55.918;37.746;2022-10-17T03:21:45;100262.62;;;8.18;0.00
23318;BME280;11831;55.918;37.746;2022-10-17T03:24:11;100256.66;;;8.16;0.00
23318;BME280;11831;55.918;37.746;2022-10-17T03:26:37;100243.63;;;8.00;0.00
23318;BME280;11831;55.918;37.746;2022-10-17T03:29:03;100246.31;;;7.78;0.00
23318;BME280;11831;55.918;37.746;2022-10-17T03:31:29;100240.37;;;7.62;0.00
23318;BME280;11831;55.918;37.746;2022-10-17T03:33:55;100233.81;;;7.79;0.00
23318;BME280;11831;55.918;37.746;2022-10-17T03:36:22;100230.22;;;7.65;0.00
23318;BME280;11831;55.918;37.746;2022-10-17T03:38:51;100233.37;;;7.75;0.00
23318;BME280;11831;55.918;37.746;2022-10-17T03:41:18;100225.12;;;7.70;0.00
23318;BME280;11831;55.918;37.746;2022-10-17T03:43:44;100212.56;;;7.86;0.00
23318;BME280;11831;55.918;37.746;2022-10-17T03:46:10;100220.50;;;8.00;0.00
23318;BME280;11831;55.918;37.746;2022-10-17T03:48:36;100221.44;;;7.93;0.00
23318;BME280;11831;55.918;37.746;2022-10-17T03:51:03;100199.53;;;7.69;0.00
23318;BME280;11831;55.918;37.746;2022-10-17T03:53:30;100206.25;;;7.65;0.00
23318;BME280;11831;55.918;37.746;2022-10-17T03:55:56;100204.28;;;7.74;0.00
23318;BME280;11831;55.918;37.746;2022-10-17T03:58:23;100206.75;;;7.54;0.00
23318;BME280;11831;55.918;37.746;2022-10-17T04:00:49;100210.72;;;7.65;0.00
23318;BME280;11831;55.918;37.746;2022-10-17T04:03:15;100193.06;;;7.57;0.00
23318;BME280;11831;55.918;37.746;2022-10-17T04:05:41;100191.47;;;7.63;0.00
23318;BME280;11831;55.918;37.746;2022-10-17T04:08:07;100187.91;;;7.98;0.00
23318;BME280;11831;55.918;37.746;2022-10-17T04:10:34;100187.97;;;7.62;0.00
23318;BME280;11831;55.918;37.746;2022-10-17T04:13:00;100182.59;;;7.77;0.00
23318;BME280;11831;55.918;37.746;2022-10-17T04:15:26;100177.97;;;7.64;0.00
23318;BME280;11831;55.918;37.746;2022-10-17T04:17:52;100185.69;;;7.59;0.00
23318;BME280;11831;55.918;37.746;2022-10-17T04:20:18;100180.38;;;7.59;0.00
23318;BME280;11831;55.918;37.746;2022-10-17T04:22:44;100189.06;;;7.68;0.00
23318;BME280;11831;55.918;37.746;2022-10-17T04:25:11;100184.06;;;7.79;0.00
23318;BME280;11831;55.918;37.746;2022-10-17T04:27:38;100185.00;;;7.72;0.00
23318;BME280;11831;55.918;37.746;2022-10-17T04:30:04;100180.22;;;7.89;0.00
23318;BME280;11831;55.918;37.746;2022-10-17T04:32:30;100183.63;;;7.76;0.00
23318;BME280;11831;55.918;37.746;2022-10-17T04:34:58;100169.47;;;7.75;0.00
23318;BME280;11831;55.918;37.746;2022-10-17T04:37:25;100161.00;;;7.93;0.00
23318;BME280;11831;55.918;37.746;2022-10-17T04:39:51;100146.97;;;7.78;0.00
23318;BME280;11831;55.918;37.746;2022-10-17T04:42:17;100157.75;;;7.70;0.00
23318;BME280;11831;55.918;37.746;2022-10-17T04:44:43;100165.38;;;7.73;0.00
23318;BME280;11831;55.918;37.746;2022-10-17T04:47:09;100155.41;;;7.82;0.00
23318;BME280;11831;55.918;37.746;2022-10-17T04:49:37;100147.03;;;8.13;0.00
23318;BME280;11831;55.918;37.746;2022-10-17T04:52:04;100157.97;;;7.96;0.00
23318;BME280;11831;55.918;37.746;2022-10-17T04:54:30;100154.78;;;8.07;0.00
23318;BME280;11831;55.918;37.746;2022-10-17T04:56:56;100156.47;;;8.15;0.00
23318;BME280;11831;55.918;37.746;2022-10-17T04:59:22;100157.78;;;7.98;0.00
23318;BME280;11831;55.918;37.746;2022-10-17T05:01:50;100146.41;;;8.10;0.00
23318;BME280;11831;55.918;37.746;2022-10-17T05:04:16;100151.38;;;8.20;0.00
23318;BME280;11831;55.918;37.746;2022-10-17T05:06:42;100148.44;;;8.08;0.00
23318;BME280;11831;55.918;37.746;2022-10-17T05:09:09;100140.59;;;8.00;0.00
23318;BME280;11831;55.918;37.746;2022-10-17T05:11:36;100139.28;;;7.90;0.00
23318;BME280;11831;55.918;37.746;2022-10-17T05:14:01;100138.50;;;7.96;0.00
23318;BME280;11831;55.918;37.746;2022-10-17T05:16:28;100143.69;;;8.04;0.00
23318;BME280;11831;55.918;37.746;2022-10-17T05:18:55;100135.66;;;7.97;0.00
23318;BME280;11831;55.918;37.746;2022-10-17T05:21:22;100126.50;;;8.06;0.00
23318;BME280;11831;55.918;37.746;2022-10-17T05:23:48;100124.41;;;8.02;0.00
23318;BME280;11831;55.918;37.746;2022-10-17T05:26:14;100104.47;;;7.91;0.00
23318;BME280;11831;55.918;37.746;2022-10-17T05:28:40;100112.13;;;8.01;0.00
23318;BME280;11831;55.918;37.746;2022-10-17T05:31:07;100095.19;;;8.15;0.00
23318;BME280;11831;55.918;37.746;2022-10-17T05:33:34;100109.78;;;8.26;0.00
23318;BME280;11831;55.918;37.746;2022-10-17T05:36:00;100119.09;;;8.02;0.00
23318;BME280;11831;55.918;37.746;2022-10-17T05:38:27;100129.13;;;8.00;0.00
23318;BME280;11831;55.918;37.746;2022-10-17T05:40:59;100125.34;;;8.22;0.00
23318;BME280;11831;55.918;37.746;2022-10-17T05:43:26;100129.13;;;8.00;0.00
23318;BME280;11831;55.918;37.746;2022-10-17T05:45:52;100120.22;;;8.21;0.00
23318;BME280;11831;55.918;37.746;2022-10-17T05:48:19;100096.22;;;8.14;0.00
23318;BME280;11831;55.918;37.746;2022-10-17T05:50:45;100092.97;;;8.25;0.00
23318;BME280;11831;55.918;37.746;2022-10-17T05:53:11;100106.25;;;8.47;0.00
23318;BME280;11831;55.918;37.746;2022-10-17T05:55:37;100098.22;;;8.33;0.00
23318;BME280;11831;55.918;37.746;2022-10-17T05:58:03;100106.44;;;8.38;0.00
23318;BME280;11831;55.918;37.746;2022-10-17T06:00:30;100098.34;;;8.60;0.00
23318;BME280;11831;55.918;37.746;2022-10-17T06:02:56;100094.25;;;8.64;0.00
23318;BME280;11831;55.918;37.746;2022-10-17T06:05:22;100098.88;;;8.49;0.00
23318;BME280;11831;55.918;37.746;2022-10-17T06:07:48;100090.72;;;8.57;0.00
23318;BME280;11831;55.918;37.746;2022-10-17T06:10:17;100106.97;;;8.27;0.00
23318;BME280;11831;55.918;37.746;2022-10-17T06:12:43;100105.03;;;8.49;0.00
23318;BME280;11831;55.918;37.746;2022-10-17T06:15:10;100101.53;;;8.42;0.00
23318;BME280;11831;55.918;37.746;2022-10-17T06:17:37;100106.06;;;8.55;0.00
23318;BME280;11831;55.918;37.746;2022-10-17T06:20:03;100106.25;;;8.47;0.00
23318;BME280;11831;55.918;37.746;2022-10-17T06:22:29;100100.63;;;8.69;0.00
23318;BME280;11831;55.918;37.746;2022-10-17T06:24:55;100089.00;;;8.90;0.00
23318;BME280;11831;55.918;37.746;2022-10-17T06:27:22;100089.16;;;8.82;0.00
23318;BME280;11831;55.918;37.746;2022-10-17T06:29:48;100084.66;;;8.83;0.00
23318;BME280;11831;55.918;37.746;2022-10-17T06:32:16;100077.31;;;9.05;0.00
23318;BME280;11831;55.918;37.746;2022-10-17T06:34:42;100087.09;;;8.78;0.00
23318;BME280;11831;55.918;37.746;2022-10-17T06:37:08;100091.69;;;9.17;0.00
23318;BME280;11831;55.918;37.746;2022-10-17T06:39:34;100096.00;;;8.98;0.00
23318;BME280;11831;55.918;37.746;2022-10-17T06:42:01;100099.81;;;8.82;0.00
23318;BME280;11831;55.918;37.746;2022-10-17T06:44:32;100105.97;;;8.76;0.00
23318;BME280;11831;55.918;37.746;2022-10-17T06:47:05;100080.19;;;9.03;0.00
23318;BME280;11831;55.918;37.746;2022-10-17T06:49:31;100083.41;;;8.85;0.00
23318;BME280;11831;55.918;37.746;2022-10-17T06:51:59;100054.06;;;8.79;0.00
23318;BME280;11831;55.918;37.746;2022-10-17T06:54:25;100052.84;;;8.81;0.00
23318;BME280;11831;55.918;37.746;2022-10-17T06:56:53;100055.28;;;8.69;0.00
23318;BME280;11831;55.918;37.746;2022-10-17T06:59:22;100044.69;;;9.09;0.00
23318;BME280;11831;55.918;37.746;2022-10-17T07:01:48;100065.22;;;8.95;0.00
23318;BME280;11831;55.918;37.746;2022-10-17T07:04:14;100046.53;;;8.89;0.00
23318;BME280;11831;55.918;37.746;2022-10-17T07:06:40;100049.56;;;8.86;0.00
23318;BME280;11831;55.918;37.746;2022-10-17T07:09:07;100056.19;;;8.90;0.00
23318;BME280;11831;55.918;37.746;2022-10-17T07:11:34;100053.31;;;8.91;0.00
23318;BME280;11831;55.918;37.746;2022-10-17T07:14:00;100041.81;;;8.97;0.00
23318;BME280;11831;55.918;37.746;2022-10-17T07:16:26;100044.94;;;9.21;0.00
23318;BME280;11831;55.918;37.746;2022-10-17T07:18:53;100040.41;;;9.28;0.00
23318;BME280;11831;55.918;37.746;2022-10-17T07:21:19;100050.47;;;9.46;0.00
23318;BME280;11831;55.918;37.746;2022-10-17T07:23:45;100051.47;;;9.18;0.00
23318;BME280;11831;55.918;37.746;2022-10-17T07:26:13;100058.06;;;9.22;0.00
23318;BME280;11831;55.918;37.746;2022-10-17T07:28:41;100057.41;;;8.94;0.00
23318;BME280;11831;55.918;37.746;2022-10-17T07:31:08;100055.16;;;9.11;0.00
23318;BME280;11831;55.918;37.746;2022-10-17T07:33:35;100051.22;;;8.87;0.00
23318;BME280;11831;55.918;37.746;2022-10-17T07:36:02;100045.31;;;8.91;0.00
23318;BME280;11831;55.918;37.746;2022-10-17T07:38:28;100034.84;;;9.16;0.00
23318;BME280;11831;55.918;37.746;2022-10-17T07:40:58;100037.53;;;9.10;0.00
23318;BME280;11831;55.918;37.746;2022-10-17T07:43:24;100014.75;;;9.14;0.00
23318;BME280;11831;55.918;37.746;2022-10-17T07:45:51;100031.16;;;8.97;0.00
23318;BME280;11831;55.918;37.746;2022-10-17T07:48:17;100007.97;;;9.05;0.00
23318;BME280;11831;55.918;37.746;2022-10-17T07:50:44;100022.69;;;8.87;0.00
23318;BME280;11831;55.918;37.746;2022-10-17T07:53:10;100019.25;;;8.93;0.00
23318;BME280;11831;55.918;37.746;2022-10-17T07:55:36;100006.13;;;8.98;0.00
23318;BME280;11831;55.918;37.746;2022-10-17T07:58:03;100011.25;;;9.13;0.00
23318;BME280;11831;55.918;37.746;2022-10-17T08:00:29;100015.78;;;9.19;0.00
23318;BME280;11831;55.918;37.746;2022-10-17T08:02:55;100033.16;;;8.82;0.00
23318;BME280;11831;55.918;37.746;2022-10-17T08:05:21;100018.44;;;9.13;0.00
23318;BME280;11831;55.918;37.746;2022-10-17T08:07:47;100034.59;;;8.85;0.00
23318;BME280;11831;55.918;37.746;2022-10-17T08:10:14;100046.53;;;8.95;0.00
23318;BME280;11831;55.918;37.746;2022-10-17T08:12:40;100052.81;;;8.68;0.00
23318;BME280;11831;55.918;37.746;2022-10-17T08:15:06;100046.28;;;8.77;0.00
23318;BME280;11831;55.918;37.746;2022-10-17T08:17:33;100037.88;;;8.80;0.00
23318;BME280;11831;55.918;37.746;2022-10-17T08:19:59;100038.41;;;8.56;0.00
23318;BME280;11831;55.918;37.746;2022-10-17T08:22:25;100018.59;;;8.78;0.00
23318;BME280;11831;55.918;37.746;2022-10-17T08:24:51;100012.03;;;8.67;0.00
23318;BME280;11831;55.918;37.746;2022-10-17T08:27:17;100004.03;;;8.87;0.00
23318;BME280;11831;55.918;37.746;2022-10-17T08:29:49;100002.19;;;8.81;0.00
23318;BME280;11831;55.918;37.746;2022-10-17T08:32:21;100030.81;;;8.53;0.00
23318;BME280;11831;55.918;37.746;2022-10-17T08:34:48;100046.25;;;8.57;0.00
23318;BME280;11831;55.918;37.746;2022-10-17T08:37:14;100030.81;;;8.46;0.00
23318;BME280;11831;55.918;37.746;2022-10-17T08:39:40;100038.00;;;8.52;0.00
23318;BME280;11831;55.918;37.746;2022-10-17T08:47:18;100002.78;;;8.63;0.00
23318;BME280;11831;55.918;37.746;2022-10-17T08:49:46;99979.81;;;8.82;0.00
23318;BME280;11831;55.918;37.746;2022-10-17T08:52:38;100000.13;;;8.63;0.00
23318;BME280;11831;55.918;37.746;2022-10-17T08:55:21;99986.59;;;8.71;0.00
23318;BME280;11831;55.918;37.746;2022-10-17T08:57:48;99974.28;;;8.77;0.00
23318;BME280;11831;55.918;37.746;2022-10-17T09:00:16;99986.22;;;8.88;0.00
23318;BME280;11831;55.918;37.746;2022-10-17T09:02:47;99987.66;;;9.10;0.00
23318;BME280;11831;55.918;37.746;2022-10-17T09:07:47;100013.25;;;8.78;0.00
23318;BME280;11831;55.918;37.746;2022-10-17T09:10:20;99983.75;;;8.99;0.00
23318;BME280;11831;55.918;37.746;2022-10-17T09:20:24;99975.50;;;8.68;0.00
23318;BME280;11831;55.918;37.746;2022-10-17T09:22:54;99985.16;;;8.76;0.00
23318;BME280;11831;55.918;37.746;2022-10-17T09:25:22;100008.53;;;8.67;0.00
23318;BME280;11831;55.918;37.746;2022-10-17T09:30:43;100046.00;;;8.11;0.00
23318;BME280;11831;55.918;37.746;2022-10-17T09:33:16;100009.25;;;8.34;0.00
23318;BME280;11831;55.918;37.746;2022-10-17T09:35:42;99998.09;;;8.24;0.00
23318;BME280;11831;55.918;37.746;2022-10-17T09:38:20;100002.22;;;8.27;0.00
23318;BME280;11831;55.918;37.746;2022-10-17T09:40:51;99995.28;;;8.32;0.00
23318;BME280;11831;55.918;37.746;2022-10-17T09:43:19;99974.94;;;8.25;0.00
23318;BME280;11831;55.918;37.746;2022-10-17T09:45:58;99988.59;;;8.50;0.00
23318;BME280;11831;55.918;37.746;2022-10-17T09:48:31;99984.97;;;8.16;0.00
23318;BME280;11831;55.918;37.746;2022-10-17T09:51:00;99978.81;;;8.22;0.00
23318;BME280;11831;55.918;37.746;2022-10-17T09:53:32;99988.50;;;8.30;0.00
23318;BME280;11831;55.918;37.746;2022-10-17T09:56:00;99985.84;;;8.30;0.00
23318;BME280;11831;55.918;37.746;2022-10-17T09:58:49;99957.25;;;8.58;0.00
23318;BME280;11831;55.918;37.746;2022-10-17T10:01:35;99982.97;;;8.31;0.00
23318;BME280;11831;55.918;37.746;2022-10-17T10:04:07;99969.91;;;8.43;0.00
23318;BME280;11831;55.918;37.746;2022-10-17T10:06:34;99955.63;;;8.64;0.00
23318;BME280;11831;55.918;37.746;2022-10-17T10:09:00;99955.97;;;8.34;0.00
23318;BME280;11831;55.918;37.746;2022-10-17T10:11:44;99950.63;;;8.34;0.00
23318;BME280;11831;55.918;37.746;2022-10-17T10:14:11;99956.78;;;8.42;0.00
23318;BME280;11831;55.918;37.746;2022-10-17T10:16:41;99959.97;;;8.17;0.00
23318;BME280;11831;55.918;37.746;2022-10-17T10:22:16;99942.03;;;8.39;0.00
23318;BME280;11831;55.918;37.746;2022-10-17T10:24:42;99943.47;;;8.42;0.00
23318;BME280;11831;55.918;37.746;2022-10-17T10:27:12;99930.03;;;8.15;0.00
23318;BME280;11831;55.918;37.746;2022-10-17T10:29:41;99927.28;;;8.56;0.00
23318;BME280;11831;55.918;37.746;2022-10-17T10:32:14;99912.97;;;8.84;0.00
23318;BME280;11831;55.918;37.746;2022-10-17T10:34:46;99927.53;;;8.81;0.00
23318;BME280;11831;55.918;37.746;2022-10-17T10:42:36;99920.94;;;8.51;0.00
23318;BME280;11831;55.918;37.746;2022-10-17T10:45:10;99912.75;;;8.79;0.00
23318;BME280;11831;55.918;37.746;2022-10-17T10:47:39;99908.22;;;8.53;0.00
23318;BME280;11831;55.918;37.746;2022-10-17T10:55:36;99919.38;;;8.08;0.00
23318;BME280;11831;55.918;37.746;2022-10-17T10:58:08;99900.63;;;8.43;0.00
23318;BME280;11831;55.918;37.746;2022-10-17T11:00:40;99894.84;;;8.33;0.00
23318;BME280;11831;55.918;37.746;2022-10-17T11:03:17;99909.69;;;8.68;0.00
23318;BME280;11831;55.918;37.746;2022-10-17T11:05:50;99904.63;;;8.19;0.00
23318;BME280;11831;55.918;37.746;2022-10-17T11:13:23;99924.37;;;8.31;0.00
23318;BME280;11831;55.918;37.746;2022-10-17T11:18:21;99908.47;;;8.58;0.00
23318;BME280;11831;55.918;37.746;2022-10-17T11:20:52;99902.28;;;8.51;0.00
23318;BME280;11831;55.918;37.746;2022-10-17T11:26:06;99904.97;;;8.57;0.00
23318;BME280;11831;55.918;37.746;2022-10-17T11:28:33;99921.94;;;8.43;0.00
23318;BME280;11831;55.918;37.746;2022-10-17T11:31:03;99912.56;;;8.60;0.00
23318;BME280;11831;55.918;37.746;2022-10-17T11:36:30;99928.09;;;8.44;0.00
23318;BME280;11831;55.918;37.746;2022-10-17T11:39:17;99895.91;;;8.52;0.00
23318;BME280;11831;55.918;37.746;2022-10-17T11:41:48;99884.44;;;8.51;0.00
23318;BME280;11831;55.918;37.746;2022-10-17T11:46:41;99879.53;;;8.55;0.00
23318;BME280;11831;55.918;37.746;2022-10-17T11:51:36;99876.84;;;8.42;0.00
23318;BME280;11831;55.918;37.746;2022-10-17T11:54:13;99867.34;;;8.26;0.00
23318;BME280;11831;55.918;37.746;2022-10-17T11:56:44;99866.00;;;8.43;0.00
23318;BME280;11831;55.918;37.746;2022-10-17T12:01:56;99855.34;;;8.76;0.00
23318;BME280;11831;55.918;37.746;2022-10-17T12:04:36;99858.00;;;8.56;0.00
23318;BME280;11831;55.918;37.746;2022-10-17T12:07:17;99866.41;;;8.40;0.00
23318;BME280;11831;55.918;37.746;2022-10-17T12:12:27;99840.56;;;8.40;0.00
23318;BME280;11831;55.918;37.746;2022-10-17T12:14:54;99866.16;;;8.28;0.00
23318;BME280;11831;55.918;37.746;2022-10-17T12:17:42;99861.69;;;8.42;0.00
23318;BME280;11831;55.918;37.746;2022-10-17T12:23:16;99880.75;;;8.72;0.00
23318;BME280;11831;55.918;37.746;2022-10-17T12:25:57;99863.94;;;8.78;0.00
23318;BME280;11831;55.918;37.746;2022-10-17T12:28:27;99862.09;;;8.79;0.00
23318;BME280;11831;55.918;37.746;2022-10-17T12:31:02;99864.34;;;8.75;0.00
23318;BME280;11831;55.918;37.746;2022-10-17T12:38:38;99890.41;;;8.99;0.00
23318;BME280;11831;55.918;37.746;2022-10-17T12:41:04;99885.88;;;8.87;0.00
23318;BME280;11831;55.918;37.746;2022-10-17T12:43:42;99882.59;;;8.52;0.00
23318;BME280;11831;55.918;37.746;2022-10-17T12:46:09;99890.41;;;8.73;0.00
23318;BME280;11831;55.918;37.746;2022-10-17T12:51:06;99893.28;;;8.65;0.00
23318;BME280;11831;55.918;37.746;2022-10-17T12:56:53;99905.59;;;8.92;0.00
23318;BME280;11831;55.918;37.746;2022-10-17T12:59:00;99930.00;;;8.63;0.00
23318;BME280;11831;55.918;37.746;2022-10-17T13:01:31;99920.97;;;9.10;0.00
23318;BME280;11831;55.918;37.746;2022-10-17T13:03:58;99932.03;;;9.07;0.00
23318;BME280;11831;55.918;37.746;2022-10-17T13:06:31;99936.16;;;9.03;0.00
23318;BME280;11831;55.918;37.746;2022-10-17T13:09:12;99937.78;;;9.04;0.00
23318;BME280;11831;55.918;37.746;2022-10-17T13:11:40;99932.84;;;8.61;0.00
23318;BME280;11831;55.918;37.746;2022-10-17T13:14:11;99942.09;;;8.79;0.00
23318;BME280;11831;55.918;37.746;2022-10-17T13:16:39;99939.03;;;9.01;0.00
23318;BME280;11831;55.918;37.746;2022-10-17T13:19:16;99939.22;;;8.74;0.00
23318;BME280;11831;55.918;37.746;2022-10-17T13:21:49;99940.25;;;8.79;0.00
23318;BME280;11831;55.918;37.746;2022-10-17T13:24:34;99921.56;;;8.79;0.00
23318;BME280;11831;55.918;37.746;2022-10-17T13:27:01;99932.44;;;8.78;0.00
23318;BME280;11831;55.918;37.746;2022-10-17T13:29:27;99932.47;;;8.91;0.00
23318;BME280;11831;55.918;37.746;2022-10-17T13:31:55;99927.94;;;9.11;0.00
23318;BME280;11831;55.918;37.746;2022-10-17T13:34:24;99916.06;;;8.94;0.00
23318;BME280;11831;55.918;37.746;2022-10-17T13:36:51;99910.09;;;8.85;0.00
23318;BME280;11831;55.918;37.746;2022-10-17T13:39:20;99911.13;;;8.78;0.00
23318;BME280;11831;55.918;37.746;2022-10-17T13:41:47;99908.03;;;9.00;0.00
23318;BME280;11831;55.918;37.746;2022-10-17T13:44:14;99912.78;;;8.98;0.00
23318;BME280;11831;55.918;37.746;2022-10-17T13:46:41;99888.13;;;9.03;0.00
23318;BME280;11831;55.918;37.746;2022-10-17T13:49:17;99883.66;;;8.90;0.00
23318;BME280;11831;55.918;37.746;2022-10-17T13:51:45;99877.66;;;9.08;0.00
23318;BME280;11831;55.918;37.746;2022-10-17T13:56:57;99870.69;;;9.20;0.00
23318;BME280;11831;55.918;37.746;2022-10-17T13:59:29;99876.03;;;9.00;0.00
23318;BME280;11831;55.918;37.746;2022-10-17T14:01:57;99864.31;;;9.21;0.00
23318;BME280;11831;55.918;37.746;2022-10-17T14:04:26;99869.63;;;9.28;0.00
23318;BME280;11831;55.918;37.746;2022-10-17T14:06:52;99851.31;;;9.51;0.00
23318;BME280;11831;55.918;37.746;2022-10-17T14:11:58;99869.38;;;9.43;0.00
23318;BME280;11831;55.918;37.746;2022-10-17T14:14:25;99859.50;;;9.56;0.00
23318;BME280;11831;55.918;37.746;2022-10-17T14:16:52;99864.03;;;9.49;0.00
23318;BME280;11831;55.918;37.746;2022-10-17T14:21:53;99866.50;;;9.44;0.00
23318;BME280;11831;55.918;37.746;2022-10-17T14:26:50;99863.31;;;9.74;0.00
23318;BME280;11831;55.918;37.746;2022-10-17T14:29:19;99865.47;;;9.45;0.00
23318;BME280;11831;55.918;37.746;2022-10-17T14:31:45;99867.25;;;9.64;0.00
23318;BME280;11831;55.918;37.746;2022-10-17T14:34:19;99866.03;;;9.60;0.00
23318;BME280;11831;55.918;37.746;2022-10-17T14:36:46;99886.63;;;9.40;0.00
23318;BME280;11831;55.918;37.746;2022-10-17T14:39:19;99874.34;;;9.32;0.00
23318;BME280;11831;55.918;37.746;2022-10-17T14:41:46;99870.87;;;9.25;0.00
23318;BME280;11831;55.918;37.746;2022-10-17T14:44:18;99867.97;;;9.33;0.00
23318;BME280;11831;55.918;37.746;2022-10-17T14:46:45;99870.25;;;9.17;0.00
23318;BME280;11831;55.918;37.746;2022-10-17T14:49:16;99859.62;;;9.68;0.00
23318;BME280;11831;55.918;37.746;2022-10-17T14:54:27;99850.63;;;9.62;0.00
23318;BME280;11831;55.918;37.746;2022-10-17T14:56:55;99866.06;;;9.47;0.00
23318;BME280;11831;55.918;37.746;2022-10-17T14:59:21;99865.44;;;9.58;0.00
23318;BME280;11831;55.918;37.746;2022-10-17T15:01:49;99904.44;;;9.59;0.00
23318;BME280;11831;55.918;37.746;2022-10-17T15:04:16;99884.06;;;9.72;0.00
23318;BME280;11831;55.918;37.746;2022-10-17T15:06:43;99893.78;;;9.46;0.00
23318;BME280;11831;55.918;37.746;2022-10-17T15:09:09;99878.81;;;9.52;0.00
23318;BME280;11831;55.918;37.746;2022-10-17T15:11:36;99888.28;;;9.41;0.00